createdAt,value
2022-08-22T00:08:53.763Z,99687.28
2022-08-22T00:19:04.966Z,99686.75
2022-08-22T00:29:13.113Z,99691.69
2022-08-22T00:39:22.359Z,99680.81
2022-08-22T00:49:44.392Z,99679.28
2022-08-22T01:00:04.119Z,99684.00
2022-08-22T01:10:22.490Z,99666.16
2022-08-22T01:20:55.918Z,99680.28
2022-08-22T01:31:18.634Z,99674.13
2022-08-22T01:41:39.523Z,99671.56
2022-08-22T01:51:47.500Z,99676.91
2022-08-22T02:01:59.917Z,99675.59
2022-08-22T02:12:23.769Z,99665.91
2022-08-22T02:22:44.347Z,99663.63
2022-08-22T02:33:00.554Z,99662.00
2022-08-22T02:43:20.660Z,99656.19
2022-08-22T02:53:30.299Z,99657.16
2022-08-22T03:03:40.847Z,99663.06
2022-08-22T03:13:51.480Z,99663.22
2022-08-22T03:23:59.495Z,99662.38
2022-08-22T03:34:22.634Z,99658.31
2022-08-22T03:45:02.477Z,99656.41
2022-08-22T03:55:20.586Z,99672.16
2022-08-22T04:05:39.612Z,99673.47
2022-08-22T04:16:05.265Z,99677.19
2022-08-22T04:26:13.795Z,99690.38
2022-08-22T04:36:21.465Z,99688.78
2022-08-22T04:46:39.480Z,99699.97
2022-08-22T04:56:54.496Z,99700.78
2022-08-22T05:07:07.502Z,99708.84
2022-08-22T05:17:15.501Z,99713.63
2022-08-22T05:27:25.107Z,99725.41
2022-08-22T05:37:35.556Z,99728.69
2022-08-22T05:47:43.062Z,99742.56
2022-08-22T05:57:50.182Z,99738.69
2022-08-22T06:07:59.838Z,99753.50
2022-08-22T06:18:20.880Z,99756.72
2022-08-22T06:28:27.210Z,99765.91
2022-08-22T06:38:33.528Z,99767.66
2022-08-22T06:48:38.296Z,99770.63
2022-08-22T06:58:43.882Z,99782.38
2022-08-22T07:08:54.729Z,99781.25
2022-08-22T07:18:57.757Z,99784.38
2022-08-22T07:29:10.326Z,99783.25
2022-08-22T07:39:24.281Z,99804.25
2022-08-22T07:49:33.407Z,99796.69
2022-08-22T07:59:44.653Z,99799.25
2022-08-22T08:09:52.291Z,99805.97
2022-08-22T08:19:56.833Z,99807.19
2022-08-22T08:30:04.103Z,99798.22
2022-08-22T08:40:17.958Z,99798.66
2022-08-22T08:50:34.248Z,99804.81
2022-08-22T09:00:51.958Z,99795.16
2022-08-22T09:11:31.085Z,99798.47
2022-08-22T09:22:19.652Z,99804.13
2022-08-22T09:32:35.446Z,99802.37
2022-08-22T09:42:46.454Z,99793.63
2022-08-22T09:52:56.909Z,99791.44
2022-08-22T10:03:06.438Z,99801.19
2022-08-22T10:13:20.021Z,99805.28
2022-08-22T10:23:29.720Z,99792.34
2022-08-22T10:33:39.719Z,99801.78
2022-08-22T10:43:56.580Z,99809.22
2022-08-22T10:54:38.283Z,99799.38
2022-08-22T11:04:55.532Z,99806.28
2022-08-22T11:15:07.528Z,99792.38
2022-08-22T11:25:38.622Z,99788.53
2022-08-22T11:35:56.010Z,99787.37
2022-08-22T11:46:02.121Z,99791.34
2022-08-22T11:56:17.547Z,99781.03
2022-08-22T12:06:51.756Z,99763.03
2022-08-22T12:17:28.562Z,99762.00
2022-08-22T12:28:08.260Z,99759.25
2022-08-22T12:38:29.740Z,99756.97
2022-08-22T12:48:53.386Z,99745.66
2022-08-22T12:59:33.748Z,99735.16
2022-08-22T13:09:39.303Z,99732.88
2022-08-22T13:19:55.604Z,99721.81
2022-08-22T13:30:01.305Z,99727.25
2022-08-22T13:40:10.226Z,99726.50
2022-08-22T13:50:20.316Z,99725.56
2022-08-22T14:01:08.996Z,99730.19
2022-08-22T14:11:21.628Z,99737.41
2022-08-22T14:21:40.119Z,99706.34
2022-08-22T14:31:56.946Z,99715.03
2022-08-22T14:42:10.049Z,99709.78
2022-08-22T14:52:33.294Z,99708.28
2022-08-22T15:02:36.886Z,99719.00
2022-08-22T15:12:47.694Z,99713.16
2022-08-22T15:22:53.171Z,99726.13
2022-08-22T15:33:10.001Z,99743.84
2022-08-22T15:43:23.425Z,99735.69
2022-08-22T15:53:31.397Z,99743.50
2022-08-22T16:03:43.775Z,99782.56
2022-08-22T16:13:48.507Z,99778.06
2022-08-22T16:24:29.691Z,99778.31
2022-08-22T16:34:43.947Z,99775.28
2022-08-22T16:44:47.990Z,99811.13
2022-08-22T16:54:53.895Z,100048.03
2022-08-22T17:05:11.426Z,99822.72
2022-08-22T17:15:26.258Z,99840.50
2022-08-22T17:25:35.926Z,99842.44
2022-08-22T17:35:50.476Z,99871.03
2022-08-22T17:46:06.643Z,99888.78
2022-08-22T17:56:21.457Z,99900.59
2022-08-22T18:06:28.996Z,99890.62
2022-08-22T18:16:37.150Z,99881.50
2022-08-22T18:26:46.071Z,99876.28
2022-08-22T18:36:55.900Z,99884.72
2022-08-22T18:47:00.972Z,99899.84
2022-08-22T19:07:53.944Z,99901.53
2022-08-22T19:18:16.821Z,99914.00
2022-08-22T19:28:29.783Z,99935.09
2022-08-22T19:39:03.400Z,99945.63
2022-08-22T19:49:28.352Z,99936.84
2022-08-22T19:59:51.356Z,99938.06
2022-08-22T20:10:09.133Z,99933.37
2022-08-22T20:20:41.702Z,99924.19
2022-08-22T20:30:51.146Z,99930.84
2022-08-22T20:41:01.691Z,99918.66
2022-08-22T20:51:07.457Z,99907.91
2022-08-22T21:01:14.018Z,99916.06
2022-08-22T21:11:41.818Z,99899.25
2022-08-22T21:21:47.304Z,99907.13
2022-08-22T21:31:53.154Z,99912.47
2022-08-22T21:42:13.249Z,99902.03
2022-08-22T21:52:28.576Z,99917.69
2022-08-22T22:02:37.294Z,99915.91
2022-08-22T22:12:42.133Z,99924.03
2022-08-22T22:22:48.643Z,99931.00
2022-08-22T22:32:55.330Z,99954.63
2022-08-22T22:43:04.306Z,99951.03
2022-08-22T22:53:12.460Z,99955.78
2022-08-22T23:03:27.887Z,99954.47
2022-08-22T23:13:36.700Z,99960.63
2022-08-22T23:23:49.525Z,99963.59
2022-08-22T23:33:57.270Z,99961.59
2022-08-22T23:44:08.495Z,99964.53
2022-08-22T23:54:22.185Z,99959.59
